sensor_id;sensor_type;location;lat;lon;timestamp;noise_LAeq;noise_LA_min;noise_LA_max;noise_LA01;noise_LA95
49568;Laerm;35474;51.032;6.998;2023-08-20T00:00:35;57.10;39.21;71.05;;
49568;Laerm;35474;51.032;6.998;2023-08-20T00:03:12;56.13;38.05;69.27;;
49568;Laerm;35474;51.032;6.998;2023-08-20T00:05:40;57.50;41.55;69.05;;
49568;Laerm;35474;51.032;6.998;2023-08-20T00:08:07;53.53;41.38;65.91;;
49568;Laerm;35474;51.032;6.998;2023-08-20T00:10:34;53.24;40.89;69.17;;
49568;Laerm;35474;51.032;6.998;2023-08-20T00:13:00;56.47;41.53;68.98;;
49568;Laerm;35474;51.032;6.998;2023-08-20T00:15:27;60.05;42.76;68.62;;
49568;Laerm;35474;51.032;6.998;2023-08-20T00:17:54;51.93;39.92;64.01;;
49568;Laerm;35474;51.032;6.998;2023-08-20T00:20:22;51.53;41.38;74.09;;
49568;Laerm;35474;51.032;6.998;2023-08-20T00:22:49;56.14;41.22;68.83;;
49568;Laerm;35474;51.032;6.998;2023-08-20T00:25:17;56.96;40.89;70.25;;
49568;Laerm;35474;51.032;6.998;2023-08-20T00:27:44;58.92;38.95;72.65;;
49568;Laerm;35474;51.032;6.998;2023-08-20T00:30:11;54.76;37.70;67.98;;
49568;Laerm;35474;51.032;6.998;2023-08-20T00:32:38;53.59;38.05;72.96;;
49568;Laerm;35474;51.032;6.998;2023-08-20T00:35:05;56.19;40.98;67.11;;
49568;Laerm;35474;51.032;6.998;2023-08-20T00:37:34;55.21;37.12;70.31;;
49568;Laerm;35474;51.032;6.998;2023-08-20T00:40:02;54.57;37.88;65.33;;
49568;Laerm;35474;51.032;6.998;2023-08-20T00:42:32;52.19;41.30;66.00;;
49568;Laerm;35474;51.032;6.998;2023-08-20T00:44:59;54.30;41.46;69.41;;
49568;Laerm;35474;51.032;6.998;2023-08-20T00:47:27;55.87;41.11;72.34;;
49568;Laerm;35474;51.032;6.998;2023-08-20T00:49:54;54.26;37.88;72.42;;
49568;Laerm;35474;51.032;6.998;2023-08-20T00:52:21;52.92;41.88;66.88;;
49568;Laerm;35474;51.032;6.998;2023-08-20T00:54:49;54.37;41.30;65.64;;
49568;Laerm;35474;51.032;6.998;2023-08-20T00:57:19;56.22;37.70;71.06;;
49568;Laerm;35474;51.032;6.998;2023-08-20T00:59:47;49.95;40.53;65.13;;
49568;Laerm;35474;51.032;6.998;2023-08-20T01:02:19;49.28;39.21;63.19;;
49568;Laerm;35474;51.032;6.998;2023-08-20T01:04:47;55.55;40.53;69.42;;
49568;Laerm;35474;51.032;6.998;2023-08-20T01:07:30;51.84;39.46;66.59;;
49568;Laerm;35474;51.032;6.998;2023-08-20T01:12:36;57.68;41.82;70.59;;
49568;Laerm;35474;51.032;6.998;2023-08-20T01:15:03;57.86;40.80;70.41;;
49568;Laerm;35474;51.032;6.998;2023-08-20T01:17:29;54.19;40.71;67.55;;
49568;Laerm;35474;51.032;6.998;2023-08-20T01:19:56;59.46;40.80;72.45;;
49568;Laerm;35474;51.032;6.998;2023-08-20T01:30:20;55.47;41.30;68.70;;
49568;Laerm;35474;51.032;6.998;2023-08-20T01:32:52;52.75;40.23;65.29;;
49568;Laerm;35474;51.032;6.998;2023-08-20T01:35:19;54.12;40.62;66.99;;
49568;Laerm;35474;51.032;6.998;2023-08-20T01:37:46;44.40;41.61;56.21;;
49568;Laerm;35474;51.032;6.998;2023-08-20T01:40:12;56.05;42.98;65.93;;
49568;Laerm;35474;51.032;6.998;2023-08-20T01:42:40;54.09;41.89;65.41;;
49568;Laerm;35474;51.032;6.998;2023-08-20T01:45:07;53.62;40.23;71.54;;
49568;Laerm;35474;51.032;6.998;2023-08-20T01:47:34;43.66;39.08;52.89;;
49568;Laerm;35474;51.032;6.998;2023-08-20T01:50:01;52.58;41.96;71.67;;
49568;Laerm;35474;51.032;6.998;2023-08-20T01:52:32;49.02;42.35;67.09;;
49568;Laerm;35474;51.032;6.998;2023-08-20T01:54:58;49.11;42.53;61.68;;
49568;Laerm;35474;51.032;6.998;2023-08-20T01:57:25;51.46;41.14;63.71;;
49568;Laerm;35474;51.032;6.998;2023-08-20T01:59:52;52.41;40.79;67.22;;
49568;Laerm;35474;51.032;6.998;2023-08-20T02:02:18;44.52;41.61;47.63;;
49568;Laerm;35474;51.032;6.998;2023-08-20T02:04:45;52.52;42.09;66.10;;
49568;Laerm;35474;51.032;6.998;2023-08-20T02:07:12;53.12;41.96;66.84;;
49568;Laerm;35474;51.032;6.998;2023-08-20T02:09:38;53.91;41.22;67.13;;
49568;Laerm;35474;51.032;6.998;2023-08-20T02:12:05;53.39;41.89;71.31;;
49568;Laerm;35474;51.032;6.998;2023-08-20T02:14:32;54.67;40.53;69.81;;
49568;Laerm;35474;51.032;6.998;2023-08-20T02:17:02;55.35;41.46;66.77;;
49568;Laerm;35474;51.032;6.998;2023-08-20T02:19:29;49.10;40.89;62.22;;
49568;Laerm;35474;51.032;6.998;2023-08-20T02:21:55;49.31;39.21;65.73;;
49568;Laerm;35474;51.032;6.998;2023-08-20T02:24:22;55.93;39.81;71.81;;
49568;Laerm;35474;51.032;6.998;2023-08-20T02:26:49;55.69;40.03;73.97;;
49568;Laerm;35474;51.032;6.998;2023-08-20T02:29:15;44.12;40.71;45.63;;
49568;Laerm;35474;51.032;6.998;2023-08-20T02:31:42;50.73;39.34;66.14;;
49568;Laerm;35474;51.032;6.998;2023-08-20T02:34:09;43.75;38.37;46.15;;
49568;Laerm;35474;51.032;6.998;2023-08-20T02:36:35;49.00;39.21;63.91;;
49568;Laerm;35474;51.032;6.998;2023-08-20T02:39:02;48.53;39.70;61.89;;
49568;Laerm;35474;51.032;6.998;2023-08-20T02:41:30;43.94;41.89;47.63;;
49568;Laerm;35474;51.032;6.998;2023-08-20T02:43:57;55.75;41.06;67.74;;
49568;Laerm;35474;51.032;6.998;2023-08-20T02:46:24;56.23;40.98;69.51;;
49568;Laerm;35474;51.032;6.998;2023-08-20T02:48:50;53.48;39.58;70.87;;
49568;Laerm;35474;51.032;6.998;2023-08-20T02:51:17;54.94;39.34;67.44;;
49568;Laerm;35474;51.032;6.998;2023-08-20T02:53:44;50.99;37.88;66.79;;
49568;Laerm;35474;51.032;6.998;2023-08-20T02:56:11;46.28;39.46;58.51;;
49568;Laerm;35474;51.032;6.998;2023-08-20T02:58:37;42.52;40.13;50.87;;
49568;Laerm;35474;51.032;6.998;2023-08-20T03:01:04;42.53;40.13;44.31;;
49568;Laerm;35474;51.032;6.998;2023-08-20T03:03:31;55.08;38.81;67.98;;
49568;Laerm;35474;51.032;6.998;2023-08-20T03:05:58;56.35;39.21;67.86;;
49568;Laerm;35474;51.032;6.998;2023-08-20T03:08:24;54.68;38.95;67.94;;
49568;Laerm;35474;51.032;6.998;2023-08-20T03:10:52;44.33;39.92;58.61;;
49568;Laerm;35474;51.032;6.998;2023-08-20T03:13:18;52.97;38.05;72.65;;
49568;Laerm;35474;51.032;6.998;2023-08-20T03:15:45;58.84;39.08;72.14;;
49568;Laerm;35474;51.032;6.998;2023-08-20T03:18:11;49.49;37.70;64.77;;
49568;Laerm;35474;51.032;6.998;2023-08-20T03:20:38;51.16;38.05;69.77;;
49568;Laerm;35474;51.032;6.998;2023-08-20T03:23:05;55.54;37.88;68.57;;
49568;Laerm;35474;51.032;6.998;2023-08-20T03:25:31;51.99;37.70;67.42;;
49568;Laerm;35474;51.032;6.998;2023-08-20T03:27:58;55.78;38.37;69.59;;
49568;Laerm;35474;51.032;6.998;2023-08-20T03:30:24;51.27;39.70;65.63;;
49568;Laerm;35474;51.032;6.998;2023-08-20T03:32:51;56.62;39.57;69.68;;
49568;Laerm;35474;51.032;6.998;2023-08-20T03:35:17;52.83;38.52;66.56;;
49568;Laerm;35474;51.032;6.998;2023-08-20T03:37:44;49.80;36.45;63.34;;
49568;Laerm;35474;51.032;6.998;2023-08-20T03:40:11;55.01;38.21;66.33;;
49568;Laerm;35474;51.032;6.998;2023-08-20T03:42:37;55.14;38.05;69.17;;
49568;Laerm;35474;51.032;6.998;2023-08-20T03:45:04;51.15;39.21;65.53;;
49568;Laerm;35474;51.032;6.998;2023-08-20T03:47:31;54.79;38.37;67.33;;
49568;Laerm;35474;51.032;6.998;2023-08-20T03:49:58;55.14;38.67;69.19;;
49568;Laerm;35474;51.032;6.998;2023-08-20T03:52:25;53.20;39.81;66.48;;
49568;Laerm;35474;51.032;6.998;2023-08-20T03:54:51;48.34;39.58;64.20;;
49568;Laerm;35474;51.032;6.998;2023-08-20T03:57:18;51.22;39.58;64.10;;
49568;Laerm;35474;51.032;6.998;2023-08-20T03:59:45;54.36;39.46;66.16;;
49568;Laerm;35474;51.032;6.998;2023-08-20T04:02:12;51.52;38.81;64.12;;
49568;Laerm;35474;51.032;6.998;2023-08-20T04:04:38;51.79;40.03;65.28;;
49568;Laerm;35474;51.032;6.998;2023-08-20T04:07:05;51.57;39.92;65.54;;
49568;Laerm;35474;51.032;6.998;2023-08-20T04:09:35;50.47;38.95;65.00;;
49568;Laerm;35474;51.032;6.998;2023-08-20T04:12:03;55.68;40.03;69.00;;
49568;Laerm;35474;51.032;6.998;2023-08-20T04:14:30;43.40;39.21;60.66;;
49568;Laerm;35474;51.032;6.998;2023-08-20T04:16:57;49.86;38.52;64.25;;
49568;Laerm;35474;51.032;6.998;2023-08-20T04:19:23;50.15;39.21;64.77;;
49568;Laerm;35474;51.032;6.998;2023-08-20T04:21:50;49.22;38.67;63.34;;
49568;Laerm;35474;51.032;6.998;2023-08-20T04:24:17;45.61;38.52;57.08;;
49568;Laerm;35474;51.032;6.998;2023-08-20T04:26:44;53.73;39.21;65.25;;
49568;Laerm;35474;51.032;6.998;2023-08-20T04:29:11;54.48;39.46;68.79;;
49568;Laerm;35474;51.032;6.998;2023-08-20T04:31:38;55.11;39.92;69.27;;
49568;Laerm;35474;51.032;6.998;2023-08-20T04:34:04;55.46;40.03;70.85;;
49568;Laerm;35474;51.032;6.998;2023-08-20T04:36:31;52.79;38.95;67.10;;
49568;Laerm;35474;51.032;6.998;2023-08-20T04:38:57;51.69;39.21;64.96;;
49568;Laerm;35474;51.032;6.998;2023-08-20T04:41:24;51.57;39.70;63.58;;
49568;Laerm;35474;51.032;6.998;2023-08-20T04:43:51;50.14;37.52;61.62;;
49568;Laerm;35474;51.032;6.998;2023-08-20T04:46:17;55.23;39.70;66.25;;
49568;Laerm;35474;51.032;6.998;2023-08-20T04:48:44;50.75;37.70;66.42;;
49568;Laerm;35474;51.032;6.998;2023-08-20T04:51:11;49.23;38.47;66.77;;
49568;Laerm;35474;51.032;6.998;2023-08-20T04:53:37;41.85;38.67;51.67;;
49568;Laerm;35474;51.032;6.998;2023-08-20T04:56:04;42.58;38.81;63.76;;
49568;Laerm;35474;51.032;6.998;2023-08-20T04:58:31;41.59;37.12;54.91;;
49568;Laerm;35474;51.032;6.998;2023-08-20T05:00:57;56.09;38.52;74.15;;
49568;Laerm;35474;51.032;6.998;2023-08-20T05:03:25;52.49;42.03;69.23;;
49568;Laerm;35474;51.032;6.998;2023-08-20T05:05:52;58.92;38.05;73.49;;
49568;Laerm;35474;51.032;6.998;2023-08-20T05:08:18;55.89;41.06;68.83;;
49568;Laerm;35474;51.032;6.998;2023-08-20T05:10:45;54.47;39.46;69.29;;
49568;Laerm;35474;51.032;6.998;2023-08-20T05:13:12;57.87;39.70;72.16;;
49568;Laerm;35474;51.032;6.998;2023-08-20T05:15:38;56.26;40.71;70.23;;
49568;Laerm;35474;51.032;6.998;2023-08-20T05:18:05;43.27;38.37;68.33;;
49568;Laerm;35474;51.032;6.998;2023-08-20T05:20:32;51.86;38.81;73.96;;
49568;Laerm;35474;51.032;6.998;2023-08-20T05:22:58;53.34;39.08;65.38;;
49568;Laerm;35474;51.032;6.998;2023-08-20T05:25:25;54.80;39.70;68.79;;
49568;Laerm;35474;51.032;6.998;2023-08-20T05:27:52;52.89;39.34;74.42;;
49568;Laerm;35474;51.032;6.998;2023-08-20T05:30:18;50.21;39.11;66.55;;
49568;Laerm;35474;51.032;6.998;2023-08-20T05:32:45;56.28;38.67;69.19;;
49568;Laerm;35474;51.032;6.998;2023-08-20T05:35:12;55.20;39.08;71.20;;
49568;Laerm;35474;51.032;6.998;2023-08-20T05:37:38;54.80;39.58;68.07;;
49568;Laerm;35474;51.032;6.998;2023-08-20T05:40:05;52.43;38.95;68.82;;
49568;Laerm;35474;51.032;6.998;2023-08-20T05:42:35;50.80;38.67;66.59;;
49568;Laerm;35474;51.032;6.998;2023-08-20T05:45:02;56.17;38.37;69.79;;
49568;Laerm;35474;51.032;6.998;2023-08-20T05:47:28;57.90;39.92;68.46;;
49568;Laerm;35474;51.032;6.998;2023-08-20T05:49:55;52.67;41.68;66.50;;
49568;Laerm;35474;51.032;6.998;2023-08-20T05:52:22;52.95;40.62;65.34;;
49568;Laerm;35474;51.032;6.998;2023-08-20T05:54:49;58.69;41.22;75.16;;
49568;Laerm;35474;51.032;6.998;2023-08-20T05:57:15;57.25;40.71;71.42;;
49568;Laerm;35474;51.032;6.998;2023-08-20T05:59:42;58.77;40.13;68.47;;
49568;Laerm;35474;51.032;6.998;2023-08-20T06:02:08;53.90;39.78;80.86;;
49568;Laerm;35474;51.032;6.998;2023-08-20T06:04:35;58.83;39.58;70.90;;
49568;Laerm;35474;51.032;6.998;2023-08-20T06:07:02;55.30;40.13;67.95;;
49568;Laerm;35474;51.032;6.998;2023-08-20T06:09:28;52.53;39.81;62.45;;
49568;Laerm;35474;51.032;6.998;2023-08-20T06:11:55;55.05;38.21;65.14;;
49568;Laerm;35474;51.032;6.998;2023-08-20T06:14:22;54.81;40.62;66.16;;
49568;Laerm;35474;51.032;6.998;2023-08-20T06:16:49;54.04;39.92;66.30;;
49568;Laerm;35474;51.032;6.998;2023-08-20T06:19:15;48.91;38.67;62.22;;
49568;Laerm;35474;51.032;6.998;2023-08-20T06:21:42;54.49;39.34;67.43;;
49568;Laerm;35474;51.032;6.998;2023-08-20T06:24:08;57.35;40.71;68.89;;
49568;Laerm;35474;51.032;6.998;2023-08-20T06:26:35;55.10;39.21;67.09;;
49568;Laerm;35474;51.032;6.998;2023-08-20T06:32:35;53.15;38.67;67.83;;
49568;Laerm;35474;51.032;6.998;2023-08-20T06:35:01;56.70;39.92;67.23;;
49568;Laerm;35474;51.032;6.998;2023-08-20T06:37:28;57.12;40.53;68.68;;
49568;Laerm;35474;51.032;6.998;2023-08-20T06:39:55;57.36;40.33;69.41;;
49568;Laerm;35474;51.032;6.998;2023-08-20T06:42:21;59.48;41.96;69.34;;
49568;Laerm;35474;51.032;6.998;2023-08-20T06:44:48;56.20;40.23;69.14;;
49568;Laerm;35474;51.032;6.998;2023-08-20T06:47:15;58.77;40.13;77.20;;
49568;Laerm;35474;51.032;6.998;2023-08-20T06:49:41;57.55;40.71;67.70;;
49568;Laerm;35474;51.032;6.998;2023-08-20T06:52:08;59.42;41.82;69.36;;
49568;Laerm;35474;51.032;6.998;2023-08-20T06:54:35;55.39;40.89;68.93;;
49568;Laerm;35474;51.032;6.998;2023-08-20T06:57:02;59.31;39.70;70.49;;
49568;Laerm;35474;51.032;6.998;2023-08-20T06:59:29;56.90;40.23;69.52;;
49568;Laerm;35474;51.032;6.998;2023-08-20T07:01:55;61.97;43.58;73.18;;
49568;Laerm;35474;51.032;6.998;2023-08-20T07:04:23;61.22;42.71;76.85;;
49568;Laerm;35474;51.032;6.998;2023-08-20T07:06:51;57.80;42.71;66.12;;
49568;Laerm;35474;51.032;6.998;2023-08-20T07:09:18;58.31;39.58;69.57;;
49568;Laerm;35474;51.032;6.998;2023-08-20T07:11:44;60.40;43.04;69.89;;
49568;Laerm;35474;51.032;6.998;2023-08-20T07:14:14;58.52;40.80;70.16;;
49568;Laerm;35474;51.032;6.998;2023-08-20T07:16:41;58.39;40.89;70.02;;
49568;Laerm;35474;51.032;6.998;2023-08-20T07:19:08;56.34;40.53;68.73;;
49568;Laerm;35474;51.032;6.998;2023-08-20T07:21:34;58.08;40.53;69.97;;
49568;Laerm;35474;51.032;6.998;2023-08-20T07:24:01;57.40;40.43;68.74;;
49568;Laerm;35474;51.032;6.998;2023-08-20T07:26:29;58.29;41.96;67.54;;
49568;Laerm;35474;51.032;6.998;2023-08-20T07:28:56;59.65;41.68;69.87;;
49568;Laerm;35474;51.032;6.998;2023-08-20T07:31:30;60.39;46.50;70.39;;
49568;Laerm;35474;51.032;6.998;2023-08-20T07:33:58;60.57;39.92;72.34;;
49568;Laerm;35474;51.032;6.998;2023-08-20T07:36:30;58.66;42.03;70.96;;
49568;Laerm;35474;51.032;6.998;2023-08-20T07:38:57;61.43;45.75;69.65;;
49568;Laerm;35474;51.032;6.998;2023-08-20T07:41:23;62.80;43.04;78.22;;
49568;Laerm;35474;51.032;6.998;2023-08-20T07:43:50;58.39;40.89;68.96;;
49568;Laerm;35474;51.032;6.998;2023-08-20T07:46:17;57.45;39.92;66.76;;
49568;Laerm;35474;51.032;6.998;2023-08-20T07:48:44;62.16;47.59;71.22;;
49568;Laerm;35474;51.032;6.998;2023-08-20T07:51:11;61.50;42.71;72.06;;
49568;Laerm;35474;51.032;6.998;2023-08-20T07:53:38;60.00;43.24;73.66;;
49568;Laerm;35474;51.032;6.998;2023-08-20T07:56:04;58.84;41.96;71.08;;
49568;Laerm;35474;51.032;6.998;2023-08-20T07:58:31;60.77;41.75;72.63;;
49568;Laerm;35474;51.032;6.998;2023-08-20T08:00:58;61.35;44.11;70.08;;
49568;Laerm;35474;51.032;6.998;2023-08-20T08:03:25;62.14;43.14;73.27;;
49568;Laerm;35474;51.032;6.998;2023-08-20T08:05:55;59.92;41.46;76.85;;
49568;Laerm;35474;51.032;6.998;2023-08-20T08:08:22;61.37;42.93;76.53;;
49568;Laerm;35474;51.032;6.998;2023-08-20T08:10:49;62.99;45.66;71.18;;
49568;Laerm;35474;51.032;6.998;2023-08-20T08:13:21;60.29;41.96;73.79;;
49568;Laerm;35474;51.032;6.998;2023-08-20T08:15:49;57.84;39.34;68.34;;
49568;Laerm;35474;51.032;6.998;2023-08-20T08:18:16;59.22;41.14;68.76;;
49568;Laerm;35474;51.032;6.998;2023-08-20T08:20:43;59.52;41.75;68.61;;
49568;Laerm;35474;51.032;6.998;2023-08-20T08:23:09;58.65;40.13;67.88;;
49568;Laerm;35474;51.032;6.998;2023-08-20T08:25:36;60.32;45.17;69.80;;
49568;Laerm;35474;51.032;6.998;2023-08-20T08:28:04;59.27;39.46;68.95;;
49568;Laerm;35474;51.032;6.998;2023-08-20T08:30:31;63.44;45.07;73.77;;
49568;Laerm;35474;51.032;6.998;2023-08-20T08:32:58;59.86;41.14;71.99;;
49568;Laerm;35474;51.032;6.998;2023-08-20T08:35:25;59.29;40.89;70.18;;
49568;Laerm;35474;51.032;6.998;2023-08-20T08:37:52;61.26;43.58;74.98;;
49568;Laerm;35474;51.032;6.998;2023-08-20T08:40:19;61.37;43.24;71.63;;
49568;Laerm;35474;51.032;6.998;2023-08-20T08:42:48;60.96;40.43;72.57;;
49568;Laerm;35474;51.032;6.998;2023-08-20T08:45:18;63.03;44.27;70.26;;
49568;Laerm;35474;51.032;6.998;2023-08-20T08:47:49;60.95;44.73;73.27;;
49568;Laerm;35474;51.032;6.998;2023-08-20T08:50:16;60.55;45.97;73.42;;
49568;Laerm;35474;51.032;6.998;2023-08-20T08:52:44;63.48;47.70;78.22;;
49568;Laerm;35474;51.032;6.998;2023-08-20T08:55:13;60.92;41.53;84.11;;
49568;Laerm;35474;51.032;6.998;2023-08-20T08:57:40;62.69;45.77;72.34;;
49568;Laerm;35474;51.032;6.998;2023-08-20T09:00:07;60.20;40.98;69.20;;
49568;Laerm;35474;51.032;6.998;2023-08-20T09:02:34;63.74;52.64;73.69;;
49568;Laerm;35474;51.032;6.998;2023-08-20T09:05:00;62.17;51.49;70.16;;
49568;Laerm;35474;51.032;6.998;2023-08-20T09:07:27;63.10;42.24;74.01;;
49568;Laerm;35474;51.032;6.998;2023-08-20T09:09:58;62.15;43.14;76.75;;
49568;Laerm;35474;51.032;6.998;2023-08-20T09:12:26;63.72;39.58;76.86;;
49568;Laerm;35474;51.032;6.998;2023-08-20T09:14:54;60.40;41.30;70.51;;
49568;Laerm;35474;51.032;6.998;2023-08-20T09:17:28;61.64;44.80;72.37;;
49568;Laerm;35474;51.032;6.998;2023-08-20T09:19:55;60.61;43.77;68.94;;
49568;Laerm;35474;51.032;6.998;2023-08-20T09:22:23;60.56;42.29;70.38;;
49568;Laerm;35474;51.032;6.998;2023-08-20T09:24:56;60.17;40.03;73.04;;
49568;Laerm;35474;51.032;6.998;2023-08-20T09:27:23;61.06;40.80;70.75;;
49568;Laerm;35474;51.032;6.998;2023-08-20T09:29:52;62.39;43.05;71.41;;
49568;Laerm;35474;51.032;6.998;2023-08-20T09:32:27;60.00;42.47;74.50;;
49568;Laerm;35474;51.032;6.998;2023-08-20T09:34:55;62.18;43.09;72.09;;
49568;Laerm;35474;51.032;6.998;2023-08-20T09:37:24;63.58;43.34;76.88;;
49568;Laerm;35474;51.032;6.998;2023-08-20T09:39:51;62.05;42.76;73.67;;
49568;Laerm;35474;51.032;6.998;2023-08-20T09:42:18;59.38;43.39;68.31;;
49568;Laerm;35474;51.032;6.998;2023-08-20T09:44:46;62.24;42.88;71.09;;
49568;Laerm;35474;51.032;6.998;2023-08-20T09:47:17;61.78;41.75;71.95;;
49568;Laerm;35474;51.032;6.998;2023-08-20T09:49:46;62.16;41.46;71.19;;
49568;Laerm;35474;51.032;6.998;2023-08-20T09:52:21;62.57;40.43;76.25;;
49568;Laerm;35474;51.032;6.998;2023-08-20T10:00:01;62.61;40.80;72.12;;
49568;Laerm;35474;51.032;6.998;2023-08-20T10:02:29;62.05;45.48;71.15;;
49568;Laerm;35474;51.032;6.998;2023-08-20T10:04:57;61.71;44.15;73.76;;
49568;Laerm;35474;51.032;6.998;2023-08-20T10:07:29;63.04;43.63;71.63;;
49568;Laerm;35474;51.032;6.998;2023-08-20T10:10:07;61.27;43.58;70.13;;
49568;Laerm;35474;51.032;6.998;2023-08-20T10:12:36;60.26;42.93;68.98;;
49568;Laerm;35474;51.032;6.998;2023-08-20T10:15:05;62.35;44.27;71.69;;
49568;Laerm;35474;51.032;6.998;2023-08-20T10:17:33;64.41;44.76;76.60;;
49568;Laerm;35474;51.032;6.998;2023-08-20T10:20:02;63.16;49.59;72.93;;
49568;Laerm;35474;51.032;6.998;2023-08-20T10:22:39;60.81;43.34;77.95;;
49568;Laerm;35474;51.032;6.998;2023-08-20T10:27:39;61.30;46.94;78.86;;
49568;Laerm;35474;51.032;6.998;2023-08-20T10:30:11;62.90;40.88;74.60;;
49568;Laerm;35474;51.032;6.998;2023-08-20T10:35:17;60.87;44.11;74.36;;
49568;Laerm;35474;51.032;6.998;2023-08-20T10:38:07;61.33;42.88;75.48;;
49568;Laerm;35474;51.032;6.998;2023-08-20T10:40:57;61.75;43.29;70.58;;
49568;Laerm;35474;51.032;6.998;2023-08-20T10:48:50;62.70;46.93;71.55;;
49568;Laerm;35474;51.032;6.998;2023-08-20T10:51:35;63.18;44.90;78.05;;
49568;Laerm;35474;51.032;6.998;2023-08-20T10:54:04;62.59;40.80;80.15;;
49568;Laerm;35474;51.032;6.998;2023-08-20T10:56:45;74.44;44.62;94.11;;
49568;Laerm;35474;51.032;6.998;2023-08-20T11:01:43;61.66;44.80;75.60;;
49568;Laerm;35474;51.032;6.998;2023-08-20T11:04:10;62.78;52.09;79.66;;
49568;Laerm;35474;51.032;6.998;2023-08-20T11:06:37;62.80;51.69;83.29;;
49568;Laerm;35474;51.032;6.998;2023-08-20T11:09:05;63.97;46.15;80.49;;
49568;Laerm;35474;51.032;6.998;2023-08-20T11:11:32;64.01;44.07;79.78;;
49568;Laerm;35474;51.032;6.998;2023-08-20T11:14:05;64.34;42.03;76.25;;
49568;Laerm;35474;51.032;6.998;2023-08-20T11:16:34;60.37;41.22;72.93;;
49568;Laerm;35474;51.032;6.998;2023-08-20T11:19:03;62.58;42.16;77.80;;
49568;Laerm;35474;51.032;6.998;2023-08-20T11:21:34;62.70;46.03;81.30;;
49568;Laerm;35474;51.032;6.998;2023-08-20T11:24:01;60.81;41.53;73.66;;
49568;Laerm;35474;51.032;6.998;2023-08-20T11:26:29;60.61;42.47;77.36;;
49568;Laerm;35474;51.032;6.998;2023-08-20T11:28:55;62.09;40.89;75.55;;
49568;Laerm;35474;51.032;6.998;2023-08-20T11:31:22;61.52;43.94;75.45;;
49568;Laerm;35474;51.032;6.998;2023-08-20T11:33:49;62.46;41.89;71.22;;
49568;Laerm;35474;51.032;6.998;2023-08-20T11:36:16;63.13;44.11;75.36;;
49568;Laerm;35474;51.032;6.998;2023-08-20T11:38:52;64.03;47.37;73.42;;
49568;Laerm;35474;51.032;6.998;2023-08-20T11:41:20;62.36;44.54;73.36;;
49568;Laerm;35474;51.032;6.998;2023-08-20T11:43:47;61.56;43.77;71.58;;
49568;Laerm;35474;51.032;6.998;2023-08-20T11:46:15;61.79;43.29;79.76;;
49568;Laerm;35474;51.032;6.998;2023-08-20T11:49:03;64.32;41.46;81.79;;
49568;Laerm;35474;51.032;6.998;2023-08-20T11:51:35;64.22;46.13;85.80;;
49568;Laerm;35474;51.032;6.998;2023-08-20T11:54:16;61.72;44.51;79.44;;
49568;Laerm;35474;51.032;6.998;2023-08-20T11:56:46;61.82;47.10;74.26;;
49568;Laerm;35474;51.032;6.998;2023-08-20T11:59:15;64.09;46.73;79.34;;
49568;Laerm;35474;51.032;6.998;2023-08-20T12:01:42;74.95;47.06;94.90;;
49568;Laerm;35474;51.032;6.998;2023-08-20T12:04:10;61.79;42.76;73.14;;
49568;Laerm;35474;51.032;6.998;2023-08-20T12:06:37;62.26;45.66;74.98;;
49568;Laerm;35474;51.032;6.998;2023-08-20T12:09:21;63.37;44.69;78.19;;
49568;Laerm;35474;51.032;6.998;2023-08-20T12:11:54;63.88;45.11;75.26;;
49568;Laerm;35474;51.032;6.998;2023-08-20T12:14:22;62.23;47.34;71.44;;
49568;Laerm;35474;51.032;6.998;2023-08-20T12:16:49;61.78;41.68;72.57;;
49568;Laerm;35474;51.032;6.998;2023-08-20T12:19:19;67.44;45.31;87.97;;
49568;Laerm;35474;51.032;6.998;2023-08-20T12:21:46;66.58;44.62;83.79;;
49568;Laerm;35474;51.032;6.998;2023-08-20T12:24:13;63.43;46.82;76.14;;
49568;Laerm;35474;51.032;6.998;2023-08-20T12:26:40;63.90;41.89;84.21;;
49568;Laerm;35474;51.032;6.998;2023-08-20T12:29:07;66.66;45.89;85.55;;
49568;Laerm;35474;51.032;6.998;2023-08-20T12:31:34;64.89;45.30;83.69;;
49568;Laerm;35474;51.032;6.998;2023-08-20T12:34:01;63.37;41.96;77.21;;
49568;Laerm;35474;51.032;6.998;2023-08-20T12:36:29;60.91;43.19;70.68;;
49568;Laerm;35474;51.032;6.998;2023-08-20T12:38:55;65.69;45.89;80.08;;
49568;Laerm;35474;51.032;6.998;2023-08-20T12:41:22;62.59;42.29;76.82;;
49568;Laerm;35474;51.032;6.998;2023-08-20T12:43:49;64.48;42.29;79.81;;
49568;Laerm;35474;51.032;6.998;2023-08-20T12:46:16;64.67;44.51;74.83;;
49568;Laerm;35474;51.032;6.998;2023-08-20T12:48:43;63.04;48.99;73.08;;
49568;Laerm;35474;51.032;6.998;2023-08-20T12:51:10;65.07;47.84;78.64;;
49568;Laerm;35474;51.032;6.998;2023-08-20T12:53:40;62.09;44.62;70.98;;
49568;Laerm;35474;51.032;6.998;2023-08-20T12:56:07;67.92;46.48;89.71;;
49568;Laerm;35474;51.032;6.998;2023-08-20T12:58:34;65.64;45.91;82.87;;
49568;Laerm;35474;51.032;6.998;2023-08-20T13:01:01;77.70;50.73;97.15;;
49568;Laerm;35474;51.032;6.998;2023-08-20T13:03:28;63.06;43.29;76.19;;
49568;Laerm;35474;51.032;6.998;2023-08-20T13:05:56;64.12;51.09;77.23;;
49568;Laerm;35474;51.032;6.998;2023-08-20T13:08:24;63.83;52.75;76.21;;
49568;Laerm;35474;51.032;6.998;2023-08-20T13:10:54;62.06;42.22;71.08;;
49568;Laerm;35474;51.032;6.998;2023-08-20T13:13:22;63.24;43.05;77.76;;
49568;Laerm;35474;51.032;6.998;2023-08-20T13:15:53;63.95;44.51;76.32;;
49568;Laerm;35474;51.032;6.998;2023-08-20T13:18:21;62.88;43.68;70.77;;
49568;Laerm;35474;51.032;6.998;2023-08-20T13:20:54;62.64;44.87;71.28;;
49568;Laerm;35474;51.032;6.998;2023-08-20T13:23:21;61.22;42.88;83.79;;
49568;Laerm;35474;51.032;6.998;2023-08-20T13:25:48;62.16;45.69;75.96;;
49568;Laerm;35474;51.032;6.998;2023-08-20T13:28:15;66.72;46.84;84.35;;
49568;Laerm;35474;51.032;6.998;2023-08-20T13:30:41;64.03;42.35;80.26;;
49568;Laerm;35474;51.032;6.998;2023-08-20T13:33:08;63.53;43.33;76.84;;
49568;Laerm;35474;51.032;6.998;2023-08-20T13:35:34;62.61;44.39;70.78;;
49568;Laerm;35474;51.032;6.998;2023-08-20T13:38:01;59.38;42.76;67.90;;
49568;Laerm;35474;51.032;6.998;2023-08-20T13:40:29;64.62;51.08;73.50;;
49568;Laerm;35474;51.032;6.998;2023-08-20T13:42:55;61.56;41.22;82.92;;
49568;Laerm;35474;51.032;6.998;2023-08-20T13:45:22;62.87;41.38;84.70;;
49568;Laerm;35474;51.032;6.998;2023-08-20T13:47:49;63.58;42.22;71.66;;
49568;Laerm;35474;51.032;6.998;2023-08-20T13:50:15;66.05;52.96;81.10;;
49568;Laerm;35474;51.032;6.998;2023-08-20T13:52:42;63.51;44.54;80.21;;
49568;Laerm;35474;51.032;6.998;2023-08-20T13:55:09;63.85;46.50;73.49;;
49568;Laerm;35474;51.032;6.998;2023-08-20T13:57:36;60.41;44.76;74.74;;
49568;Laerm;35474;51.032;6.998;2023-08-20T14:00:04;63.49;44.69;70.73;;
49568;Laerm;35474;51.032;6.998;2023-08-20T14:02:36;61.39;41.96;70.73;;
49568;Laerm;35474;51.032;6.998;2023-08-20T14:05:03;62.73;42.65;70.61;;
49568;Laerm;35474;51.032;6.998;2023-08-20T14:07:31;60.78;43.60;79.21;;
49568;Laerm;35474;51.032;6.998;2023-08-20T14:10:00;66.61;46.20;85.69;;
49568;Laerm;35474;51.032;6.998;2023-08-20T14:12:26;64.36;48.69;77.65;;
49568;Laerm;35474;51.032;6.998;2023-08-20T14:14:53;65.45;47.40;84.58;;
49568;Laerm;35474;51.032;6.998;2023-08-20T14:17:20;67.05;43.09;87.09;;
49568;Laerm;35474;51.032;6.998;2023-08-20T14:19:47;67.39;50.45;90.49;;